Bunch, OK (74931)

12:37 PM CDT on July 29, 2014 (GMT -0500)
The Leaf PH (KOKPARKH3) Elev 814 ft | 35.77 °N, 94.91 °W | Change Station

Current weather conditions updated 6 minutes ago

Clear
Clear
86.0 °F
Feels Like 110 °F
N
3.2
Wind Variable Wind from NNW

Today is forecast to be nearly the same temperature as yesterday.

Today
High -- | Low -- °F
--% Chance of Precip.
Yesterday
High -- | Low -- °F
Precip. -- in
6:24 AM 8:25 PM
Waxing Crescent, 7% visible
Pressure 30.16 in
Visibility 10.0 miles
Clouds Clear
Heat Index 110 °F
Dew Point 85 °F
Humidity 98%
Rainfall 0.00 in
Snow Depth Not available.
UV 11 out of 12
Pollen 4.90 out of 12
Air Quality Not available.
Flu Activity Not available.
METAR KJSV 291715Z AUTO 09004KT 10SM CLR 28/16 A3016 RMK AO2

More Conditions Fewer Conditions

Pressure 30.16 in
Visibility 10.0 miles
Clouds Clear
Heat Index 110 °F
Dew Point 85 °F
Humidity 98%
Rainfall 0.00 in
Snow Depth Not available.
UV 11 out of 12
Pollen 4.90 out of 12
Air Quality Not available.
Flu Activity Not available.
METAR KJSV 291715Z AUTO 09004KT 10SM CLR 28/16 A3016 RMK AO2

More Conditions Fewer Conditions

10-Day Weather Forecast

Almanac

Astronomy

Jul. 29, 2014 Rise Set
Actual Time 6:24 AM CDT 8:25 PM CDT
Civil Twilight 5:56 AM CDT 8:54 PM CDT
Nautical Twilight 5:21 AM CDT 9:28 PM CDT
Astronomical Twilight 4:44 AM CDT 10:05 PM CDT
Moon 8:54 AM CDT 9:46 PM CDT
Length of Visible Light 14h 57m
Length of Day
14h 01m
Tomorrow will be 1m 37s shorter.
Waxing Crescent, 7% of the Moon is Illuminated
Today
Waxing Crescent
Aug 3
First Quarter
Aug 10
Full
Aug 17
Last Quarter
Aug 25
New

Today's Extremes

State Highs State Lows

Community

WunderPhotos

Upload Photos

1,738,797 photos uploaded!

Nearby

Snow Depth

Station Depth Elevation
No new snow has been reported.

Earthquake Activity

City Distance Mag. Time & Date
No recent earthquake activity has been reported nearby.
Minimum magnitude displayed is 2.5.

Coastal Water Temperatures

Place Temperature
No Stations Reporting

Nearby Weather Stations

Station Location Temp. Heat Index Dew Point Humidity Wind Precip. Elev Updated Type
The Leaf PH, Park Hill, OK 86.0 °F 110 °F 85 °F 98% NNW  at  3.2 mph - / hr 814 ft 12:31 PM CDT Normal
Tenkiller Harbor, Park Hill, OK 86.4 °F 85 °F 57 °F 37% SE  at  2.3 mph 0.00 in / hr 751 ft 12:37 PM CDT Rapid Fire
MesoWest VIANN , Vian, OK 77 °F 75 °F - - North  at  - 0.00 in / hr 518 ft 9:35 AM CDT MADIS
MesoWest MULDRO , Roland, OK 76 °F 74 °F - - North  at  - 0.00 in / hr 509 ft 9:00 AM CDT MADIS

Show More Stations Show Fewer Stations